sensor_id;sensor_type;location;lat;lon;timestamp;P1;durP1;ratioP1;P2;durP2;ratioP2
46457;SDS011;32155;54.076;12.092;2023-03-26T00:00:56;10.48;;;3.38;;
46457;SDS011;32155;54.076;12.092;2023-03-26T00:03:22;12.48;;;3.40;;
46457;SDS011;32155;54.076;12.092;2023-03-26T00:05:48;14.38;;;3.25;;
46457;SDS011;32155;54.076;12.092;2023-03-26T00:08:25;9.75;;;3.08;;
46457;SDS011;32155;54.076;12.092;2023-03-26T00:10:53;9.48;;;4.05;;
46457;SDS011;32155;54.076;12.092;2023-03-26T00:13:21;10.05;;;3.10;;
46457;SDS011;32155;54.076;12.092;2023-03-26T00:15:51;9.20;;;3.03;;
46457;SDS011;32155;54.076;12.092;2023-03-26T00:18:17;8.73;;;3.63;;
46457;SDS011;32155;54.076;12.092;2023-03-26T00:20:49;8.40;;;3.80;;
46457;SDS011;32155;54.076;12.092;2023-03-26T00:23:17;9.30;;;3.40;;
46457;SDS011;32155;54.076;12.092;2023-03-26T00:25:43;13.38;;;3.30;;
46457;SDS011;32155;54.076;12.092;2023-03-26T00:28:09;12.60;;;4.13;;
46457;SDS011;32155;54.076;12.092;2023-03-26T00:30:41;11.77;;;3.85;;
46457;SDS011;32155;54.076;12.092;2023-03-26T00:33:07;11.98;;;3.47;;
46457;SDS011;32155;54.076;12.092;2023-03-26T00:35:36;16.42;;;3.53;;
46457;SDS011;32155;54.076;12.092;2023-03-26T00:38:02;10.77;;;3.47;;
46457;SDS011;32155;54.076;12.092;2023-03-26T00:40:30;9.68;;;3.25;;
46457;SDS011;32155;54.076;12.092;2023-03-26T00:43:00;17.30;;;3.50;;
46457;SDS011;32155;54.076;12.092;2023-03-26T00:45:26;10.00;;;3.78;;
46457;SDS011;32155;54.076;12.092;2023-03-26T00:47:52;11.35;;;3.72;;
46457;SDS011;32155;54.076;12.092;2023-03-26T00:50:17;10.05;;;3.38;;
46457;SDS011;32155;54.076;12.092;2023-03-26T00:52:43;10.93;;;3.63;;
46457;SDS011;32155;54.076;12.092;2023-03-26T00:55:10;11.13;;;3.40;;
46457;SDS011;32155;54.076;12.092;2023-03-26T00:57:37;11.48;;;3.58;;
46457;SDS011;32155;54.076;12.092;2023-03-26T01:00:06;14.23;;;4.30;;
46457;SDS011;32155;54.076;12.092;2023-03-26T01:02:35;13.73;;;4.38;;
46457;SDS011;32155;54.076;12.092;2023-03-26T01:05:29;12.68;;;3.65;;
46457;SDS011;32155;54.076;12.092;2023-03-26T01:08:21;11.32;;;3.67;;
46457;SDS011;32155;54.076;12.092;2023-03-26T01:10:48;9.85;;;3.95;;
46457;SDS011;32155;54.076;12.092;2023-03-26T01:13:21;15.20;;;3.83;;
46457;SDS011;32155;54.076;12.092;2023-03-26T01:15:48;17.83;;;3.70;;
46457;SDS011;32155;54.076;12.092;2023-03-26T01:18:20;16.35;;;4.75;;
46457;SDS011;32155;54.076;12.092;2023-03-26T01:20:50;20.02;;;4.38;;
46457;SDS011;32155;54.076;12.092;2023-03-26T01:23:23;19.35;;;5.32;;
46457;SDS011;32155;54.076;12.092;2023-03-26T01:26:01;20.92;;;6.53;;
46457;SDS011;32155;54.076;12.092;2023-03-26T01:28:53;22.58;;;4.45;;
46457;SDS011;32155;54.076;12.092;2023-03-26T01:34:14;29.38;;;6.65;;
46457;SDS011;32155;54.076;12.092;2023-03-26T01:39:56;21.23;;;4.32;;
46457;SDS011;32155;54.076;12.092;2023-03-26T01:42:32;15.95;;;4.85;;
46457;SDS011;32155;54.076;12.092;2023-03-26T01:45:06;15.90;;;4.95;;
46457;SDS011;32155;54.076;12.092;2023-03-26T01:47:38;21.52;;;4.72;;
46457;SDS011;32155;54.076;12.092;2023-03-26T01:50:05;18.63;;;5.05;;
46457;SDS011;32155;54.076;12.092;2023-03-26T01:52:34;23.42;;;4.88;;
46457;SDS011;32155;54.076;12.092;2023-03-26T01:55:00;19.60;;;4.70;;
46457;SDS011;32155;54.076;12.092;2023-03-26T01:57:34;18.35;;;4.45;;
46457;SDS011;32155;54.076;12.092;2023-03-26T02:00:41;13.38;;;4.35;;
46457;SDS011;32155;54.076;12.092;2023-03-26T02:03:24;22.45;;;3.70;;
46457;SDS011;32155;54.076;12.092;2023-03-26T02:08:56;18.10;;;4.10;;
46457;SDS011;32155;54.076;12.092;2023-03-26T02:11:26;21.52;;;4.32;;
46457;SDS011;32155;54.076;12.092;2023-03-26T02:13:52;15.13;;;4.65;;
46457;SDS011;32155;54.076;12.092;2023-03-26T02:16:18;23.15;;;4.85;;
46457;SDS011;32155;54.076;12.092;2023-03-26T02:18:45;17.58;;;4.50;;
46457;SDS011;32155;54.076;12.092;2023-03-26T02:21:19;16.08;;;4.40;;
46457;SDS011;32155;54.076;12.092;2023-03-26T02:23:50;15.65;;;4.55;;
46457;SDS011;32155;54.076;12.092;2023-03-26T02:26:22;22.85;;;5.13;;
46457;SDS011;32155;54.076;12.092;2023-03-26T02:28:48;16.45;;;4.40;;
46457;SDS011;32155;54.076;12.092;2023-03-26T02:31:14;21.92;;;4.53;;
46457;SDS011;32155;54.076;12.092;2023-03-26T02:33:48;16.20;;;4.90;;
46457;SDS011;32155;54.076;12.092;2023-03-26T02:36:13;12.85;;;4.45;;
46457;SDS011;32155;54.076;12.092;2023-03-26T02:38:42;19.15;;;5.03;;
46457;SDS011;32155;54.076;12.092;2023-03-26T02:41:07;27.20;;;5.13;;
46457;SDS011;32155;54.076;12.092;2023-03-26T02:43:33;20.20;;;5.10;;
46457;SDS011;32155;54.076;12.092;2023-03-26T02:45:59;21.92;;;6.35;;
46457;SDS011;32155;54.076;12.092;2023-03-26T02:48:24;17.63;;;4.85;;
46457;SDS011;32155;54.076;12.092;2023-03-26T02:50:52;20.17;;;4.97;;
46457;SDS011;32155;54.076;12.092;2023-03-26T02:53:22;18.55;;;5.00;;
46457;SDS011;32155;54.076;12.092;2023-03-26T02:55:54;20.83;;;4.65;;
46457;SDS011;32155;54.076;12.092;2023-03-26T02:58:20;22.95;;;5.35;;
46457;SDS011;32155;54.076;12.092;2023-03-26T03:00:49;17.05;;;4.63;;
46457;SDS011;32155;54.076;12.092;2023-03-26T03:03:18;25.70;;;4.93;;
46457;SDS011;32155;54.076;12.092;2023-03-26T03:05:57;17.50;;;4.53;;
46457;SDS011;32155;54.076;12.092;2023-03-26T03:08:24;16.98;;;3.97;;
46457;SDS011;32155;54.076;12.092;2023-03-26T03:10:57;14.77;;;4.38;;
46457;SDS011;32155;54.076;12.092;2023-03-26T03:13:25;13.43;;;4.38;;
46457;SDS011;32155;54.076;12.092;2023-03-26T03:15:51;14.25;;;4.18;;
46457;SDS011;32155;54.076;12.092;2023-03-26T03:18:19;22.35;;;5.70;;
46457;SDS011;32155;54.076;12.092;2023-03-26T03:20:45;18.10;;;4.10;;
46457;SDS011;32155;54.076;12.092;2023-03-26T03:23:11;14.80;;;4.00;;
46457;SDS011;32155;54.076;12.092;2023-03-26T03:25:37;18.48;;;3.72;;
46457;SDS011;32155;54.076;12.092;2023-03-26T03:28:05;15.88;;;3.95;;
46457;SDS011;32155;54.076;12.092;2023-03-26T03:30:31;14.73;;;3.90;;
46457;SDS011;32155;54.076;12.092;2023-03-26T03:33:00;14.77;;;3.72;;
46457;SDS011;32155;54.076;12.092;2023-03-26T03:35:30;23.83;;;4.15;;
46457;SDS011;32155;54.076;12.092;2023-03-26T03:37:57;14.85;;;3.40;;
46457;SDS011;32155;54.076;12.092;2023-03-26T03:40:25;16.90;;;4.18;;
46457;SDS011;32155;54.076;12.092;2023-03-26T03:42:51;17.73;;;3.80;;
46457;SDS011;32155;54.076;12.092;2023-03-26T03:45:17;19.30;;;3.75;;
46457;SDS011;32155;54.076;12.092;2023-03-26T03:47:43;13.13;;;3.58;;
46457;SDS011;32155;54.076;12.092;2023-03-26T03:50:11;15.55;;;4.05;;
46457;SDS011;32155;54.076;12.092;2023-03-26T03:52:36;13.40;;;3.97;;
46457;SDS011;32155;54.076;12.092;2023-03-26T03:55:04;16.60;;;3.00;;
46457;SDS011;32155;54.076;12.092;2023-03-26T03:57:30;12.70;;;2.60;;
46457;SDS011;32155;54.076;12.092;2023-03-26T03:59:58;11.45;;;2.97;;
46457;SDS011;32155;54.076;12.092;2023-03-26T04:02:24;11.73;;;2.63;;
46457;SDS011;32155;54.076;12.092;2023-03-26T04:04:54;6.55;;;1.77;;
46457;SDS011;32155;54.076;12.092;2023-03-26T04:07:22;11.75;;;2.25;;
46457;SDS011;32155;54.076;12.092;2023-03-26T04:09:49;7.90;;;1.67;;
46457;SDS011;32155;54.076;12.092;2023-03-26T04:12:15;13.35;;;2.25;;
46457;SDS011;32155;54.076;12.092;2023-03-26T04:14:41;10.63;;;1.77;;
46457;SDS011;32155;54.076;12.092;2023-03-26T04:17:06;5.70;;;1.80;;
46457;SDS011;32155;54.076;12.092;2023-03-26T04:19:37;8.20;;;1.65;;
46457;SDS011;32155;54.076;12.092;2023-03-26T04:22:03;15.90;;;2.45;;
46457;SDS011;32155;54.076;12.092;2023-03-26T04:24:29;13.45;;;2.20;;
46457;SDS011;32155;54.076;12.092;2023-03-26T04:26:58;7.75;;;1.88;;
46457;SDS011;32155;54.076;12.092;2023-03-26T04:29:26;16.52;;;2.28;;
46457;SDS011;32155;54.076;12.092;2023-03-26T04:31:54;12.38;;;1.90;;
46457;SDS011;32155;54.076;12.092;2023-03-26T04:34:30;10.40;;;2.40;;
46457;SDS011;32155;54.076;12.092;2023-03-26T04:37:01;8.23;;;1.83;;
46457;SDS011;32155;54.076;12.092;2023-03-26T04:39:27;13.20;;;2.08;;
46457;SDS011;32155;54.076;12.092;2023-03-26T04:41:53;13.98;;;2.17;;
46457;SDS011;32155;54.076;12.092;2023-03-26T04:44:20;8.15;;;2.10;;
46457;SDS011;32155;54.076;12.092;2023-03-26T04:46:47;10.43;;;1.85;;
46457;SDS011;32155;54.076;12.092;2023-03-26T04:49:13;13.32;;;1.77;;
46457;SDS011;32155;54.076;12.092;2023-03-26T04:51:39;10.10;;;2.35;;
46457;SDS011;32155;54.076;12.092;2023-03-26T04:54:10;9.05;;;1.30;;
46457;SDS011;32155;54.076;12.092;2023-03-26T04:56:44;6.70;;;1.35;;
46457;SDS011;32155;54.076;12.092;2023-03-26T04:59:21;6.60;;;1.50;;
46457;SDS011;32155;54.076;12.092;2023-03-26T05:01:54;7.75;;;1.10;;
46457;SDS011;32155;54.076;12.092;2023-03-26T05:04:24;4.43;;;1.20;;
46457;SDS011;32155;54.076;12.092;2023-03-26T05:06:50;5.95;;;1.02;;
46457;SDS011;32155;54.076;12.092;2023-03-26T05:09:21;7.65;;;1.20;;
46457;SDS011;32155;54.076;12.092;2023-03-26T05:11:51;2.85;;;0.90;;
46457;SDS011;32155;54.076;12.092;2023-03-26T05:14:17;8.90;;;1.42;;
46457;SDS011;32155;54.076;12.092;2023-03-26T05:16:43;6.55;;;1.20;;
46457;SDS011;32155;54.076;12.092;2023-03-26T05:19:11;2.75;;;0.70;;
46457;SDS011;32155;54.076;12.092;2023-03-26T05:21:37;5.55;;;0.90;;
46457;SDS011;32155;54.076;12.092;2023-03-26T05:24:03;2.58;;;0.93;;
46457;SDS011;32155;54.076;12.092;2023-03-26T05:26:30;1.90;;;0.80;;
46457;SDS011;32155;54.076;12.092;2023-03-26T05:29:00;6.95;;;1.30;;
46457;SDS011;32155;54.076;12.092;2023-03-26T05:31:29;6.97;;;1.02;;
46457;SDS011;32155;54.076;12.092;2023-03-26T05:33:55;2.97;;;0.68;;
46457;SDS011;32155;54.076;12.092;2023-03-26T05:36:22;2.03;;;0.65;;
46457;SDS011;32155;54.076;12.092;2023-03-26T05:38:48;4.70;;;1.08;;
46457;SDS011;32155;54.076;12.092;2023-03-26T05:41:16;3.60;;;0.90;;
46457;SDS011;32155;54.076;12.092;2023-03-26T05:43:42;5.15;;;1.33;;
46457;SDS011;32155;54.076;12.092;2023-03-26T05:46:09;3.95;;;1.30;;
46457;SDS011;32155;54.076;12.092;2023-03-26T05:48:35;7.20;;;1.67;;
46457;SDS011;32155;54.076;12.092;2023-03-26T05:51:02;4.18;;;1.50;;
46457;SDS011;32155;54.076;12.092;2023-03-26T05:53:28;6.82;;;1.90;;
46457;SDS011;32155;54.076;12.092;2023-03-26T05:55:54;10.38;;;2.47;;
46457;SDS011;32155;54.076;12.092;2023-03-26T05:58:23;7.03;;;2.13;;
46457;SDS011;32155;54.076;12.092;2023-03-26T06:01:04;13.50;;;2.38;;
46457;SDS011;32155;54.076;12.092;2023-03-26T06:03:33;8.80;;;2.00;;
46457;SDS011;32155;54.076;12.092;2023-03-26T06:06:01;11.85;;;1.92;;
46457;SDS011;32155;54.076;12.092;2023-03-26T06:08:33;11.30;;;2.33;;
46457;SDS011;32155;54.076;12.092;2023-03-26T06:11:02;10.05;;;2.30;;
46457;SDS011;32155;54.076;12.092;2023-03-26T06:13:31;10.18;;;2.83;;
46457;SDS011;32155;54.076;12.092;2023-03-26T06:15:56;8.70;;;1.95;;
46457;SDS011;32155;54.076;12.092;2023-03-26T06:18:22;6.57;;;1.40;;
46457;SDS011;32155;54.076;12.092;2023-03-26T06:20:51;6.88;;;1.70;;
46457;SDS011;32155;54.076;12.092;2023-03-26T06:23:17;9.77;;;1.75;;
46457;SDS011;32155;54.076;12.092;2023-03-26T06:25:43;14.60;;;2.08;;
46457;SDS011;32155;54.076;12.092;2023-03-26T06:28:12;7.13;;;1.95;;
46457;SDS011;32155;54.076;12.092;2023-03-26T06:30:37;13.43;;;1.98;;
46457;SDS011;32155;54.076;12.092;2023-03-26T06:33:04;8.15;;;1.55;;
46457;SDS011;32155;54.076;12.092;2023-03-26T06:35:30;9.98;;;1.30;;
46457;SDS011;32155;54.076;12.092;2023-03-26T06:37:58;13.35;;;2.20;;
46457;SDS011;32155;54.076;12.092;2023-03-26T06:40:24;10.77;;;2.10;;
46457;SDS011;32155;54.076;12.092;2023-03-26T06:42:50;9.63;;;2.22;;
46457;SDS011;32155;54.076;12.092;2023-03-26T06:45:16;17.48;;;2.42;;
46457;SDS011;32155;54.076;12.092;2023-03-26T06:47:41;13.68;;;1.60;;
46457;SDS011;32155;54.076;12.092;2023-03-26T06:50:07;13.77;;;2.22;;
46457;SDS011;32155;54.076;12.092;2023-03-26T06:52:35;15.30;;;2.42;;
46457;SDS011;32155;54.076;12.092;2023-03-26T06:55:01;17.75;;;2.50;;
46457;SDS011;32155;54.076;12.092;2023-03-26T06:57:27;22.38;;;3.08;;
46457;SDS011;32155;54.076;12.092;2023-03-26T06:59:54;16.05;;;2.92;;
46457;SDS011;32155;54.076;12.092;2023-03-26T07:02:19;23.90;;;4.43;;
46457;SDS011;32155;54.076;12.092;2023-03-26T07:04:45;23.23;;;2.83;;
46457;SDS011;32155;54.076;12.092;2023-03-26T07:07:11;13.43;;;2.20;;
46457;SDS011;32155;54.076;12.092;2023-03-26T07:09:38;26.58;;;3.45;;
46457;SDS011;32155;54.076;12.092;2023-03-26T07:12:04;20.65;;;3.05;;
46457;SDS011;32155;54.076;12.092;2023-03-26T07:14:30;23.35;;;3.47;;
46457;SDS011;32155;54.076;12.092;2023-03-26T07:16:59;23.17;;;3.00;;
46457;SDS011;32155;54.076;12.092;2023-03-26T07:19:25;29.33;;;3.13;;
46457;SDS011;32155;54.076;12.092;2023-03-26T07:21:51;19.92;;;2.97;;
46457;SDS011;32155;54.076;12.092;2023-03-26T07:24:17;20.10;;;2.95;;
46457;SDS011;32155;54.076;12.092;2023-03-26T07:32:19;20.33;;;2.67;;
46457;SDS011;32155;54.076;12.092;2023-03-26T07:45:55;14.95;;;2.28;;
46457;SDS011;32155;54.076;12.092;2023-03-26T07:48:22;14.25;;;3.80;;
46457;SDS011;32155;54.076;12.092;2023-03-26T07:50:51;22.00;;;2.97;;
46457;SDS011;32155;54.076;12.092;2023-03-26T07:53:18;18.65;;;2.95;;
46457;SDS011;32155;54.076;12.092;2023-03-26T07:56:32;22.23;;;3.65;;
46457;SDS011;32155;54.076;12.092;2023-03-26T08:01:32;22.88;;;3.80;;
46457;SDS011;32155;54.076;12.092;2023-03-26T08:15:59;16.98;;;3.65;;
46457;SDS011;32155;54.076;12.092;2023-03-26T08:21:16;23.92;;;3.13;;
46457;SDS011;32155;54.076;12.092;2023-03-26T08:31:53;19.60;;;3.65;;
46457;SDS011;32155;54.076;12.092;2023-03-26T08:34:21;18.88;;;3.17;;
46457;SDS011;32155;54.076;12.092;2023-03-26T08:36:47;27.98;;;4.53;;
46457;SDS011;32155;54.076;12.092;2023-03-26T08:39:12;25.63;;;3.55;;
46457;SDS011;32155;54.076;12.092;2023-03-26T09:36:52;15.30;;;3.40;;
46457;SDS011;32155;54.076;12.092;2023-03-26T09:42:15;19.58;;;3.92;;
46457;SDS011;32155;54.076;12.092;2023-03-26T09:47:54;23.92;;;3.92;;
46457;SDS011;32155;54.076;12.092;2023-03-26T10:08:29;19.95;;;3.97;;
46457;SDS011;32155;54.076;12.092;2023-03-26T10:16:51;21.30;;;4.28;;
46457;SDS011;32155;54.076;12.092;2023-03-26T10:41:54;17.35;;;3.78;;
46457;SDS011;32155;54.076;12.092;2023-03-26T10:44:34;22.17;;;3.92;;
46457;SDS011;32155;54.076;12.092;2023-03-26T10:47:13;17.38;;;3.83;;
46457;SDS011;32155;54.076;12.092;2023-03-26T10:52:22;13.55;;;3.55;;
46457;SDS011;32155;54.076;12.092;2023-03-26T10:54:56;20.00;;;4.45;;
46457;SDS011;32155;54.076;12.092;2023-03-26T11:00:19;20.48;;;3.58;;
46457;SDS011;32155;54.076;12.092;2023-03-26T11:06:03;16.88;;;3.85;;
46457;SDS011;32155;54.076;12.092;2023-03-26T11:19:37;15.35;;;3.70;;
46457;SDS011;32155;54.076;12.092;2023-03-26T11:25:06;19.90;;;3.72;;
46457;SDS011;32155;54.076;12.092;2023-03-26T11:27:55;14.90;;;4.18;;
46457;SDS011;32155;54.076;12.092;2023-03-26T11:30:40;20.42;;;4.13;;
46457;SDS011;32155;54.076;12.092;2023-03-26T11:33:20;14.95;;;3.65;;
46457;SDS011;32155;54.076;12.092;2023-03-26T11:35:51;19.38;;;4.18;;
46457;SDS011;32155;54.076;12.092;2023-03-26T11:38:28;18.38;;;3.63;;
46457;SDS011;32155;54.076;12.092;2023-03-26T11:41:01;22.33;;;3.45;;
46457;SDS011;32155;54.076;12.092;2023-03-26T11:43:33;16.45;;;4.15;;
46457;SDS011;32155;54.076;12.092;2023-03-26T11:46:07;18.65;;;4.40;;
46457;SDS011;32155;54.076;12.092;2023-03-26T11:48:40;17.17;;;4.05;;
46457;SDS011;32155;54.076;12.092;2023-03-26T11:51:17;14.52;;;3.15;;
46457;SDS011;32155;54.076;12.092;2023-03-26T11:53:44;20.95;;;4.60;;
46457;SDS011;32155;54.076;12.092;2023-03-26T11:57:14;17.38;;;3.92;;
46457;SDS011;32155;54.076;12.092;2023-03-26T12:04:43;16.65;;;3.80;;
46457;SDS011;32155;54.076;12.092;2023-03-26T12:09:57;22.55;;;4.32;;
46457;SDS011;32155;54.076;12.092;2023-03-26T12:12:25;14.98;;;3.88;;
46457;SDS011;32155;54.076;12.092;2023-03-26T12:15:02;16.88;;;4.40;;
46457;SDS011;32155;54.076;12.092;2023-03-26T12:19:56;18.45;;;4.00;;
46457;SDS011;32155;54.076;12.092;2023-03-26T12:22:38;17.30;;;4.10;;
46457;SDS011;32155;54.076;12.092;2023-03-26T12:28:30;10.45;;;3.20;;
46457;SDS011;32155;54.076;12.092;2023-03-26T12:59:59;12.77;;;2.97;;
46457;SDS011;32155;54.076;12.092;2023-03-26T13:31:33;17.77;;;4.38;;
46457;SDS011;32155;54.076;12.092;2023-03-26T13:46:59;14.05;;;3.10;;
46457;SDS011;32155;54.076;12.092;2023-03-26T14:47:15;18.08;;;3.25;;
46457;SDS011;32155;54.076;12.092;2023-03-26T14:52:35;10.77;;;2.90;;
46457;SDS011;32155;54.076;12.092;2023-03-26T14:55:13;8.27;;;1.95;;
46457;SDS011;32155;54.076;12.092;2023-03-26T15:01:17;10.43;;;2.47;;
46457;SDS011;32155;54.076;12.092;2023-03-26T15:12:23;13.05;;;2.30;;
46457;SDS011;32155;54.076;12.092;2023-03-26T15:15:17;11.02;;;2.00;;
46457;SDS011;32155;54.076;12.092;2023-03-26T15:18:06;10.77;;;2.13;;
46457;SDS011;32155;54.076;12.092;2023-03-26T15:27:30;13.80;;;2.17;;
46457;SDS011;32155;54.076;12.092;2023-03-26T15:33:34;13.52;;;1.98;;
46457;SDS011;32155;54.076;12.092;2023-03-26T15:51:21;6.95;;;1.60;;
46457;SDS011;32155;54.076;12.092;2023-03-26T16:32:32;4.50;;;0.93;;
46457;SDS011;32155;54.076;12.092;2023-03-26T16:36:14;3.00;;;1.25;;
46457;SDS011;32155;54.076;12.092;2023-03-26T16:39:49;5.30;;;1.08;;
46457;SDS011;32155;54.076;12.092;2023-03-26T17:04:37;3.47;;;0.73;;
46457;SDS011;32155;54.076;12.092;2023-03-26T17:08:28;3.47;;;1.10;;
46457;SDS011;32155;54.076;12.092;2023-03-26T17:27:34;2.42;;;0.80;;
46457;SDS011;32155;54.076;12.092;2023-03-26T17:59:47;6.75;;;1.23;;
46457;SDS011;32155;54.076;12.092;2023-03-26T18:02:26;2.38;;;1.02;;
46457;SDS011;32155;54.076;12.092;2023-03-26T18:22:28;3.33;;;1.25;;
46457;SDS011;32155;54.076;12.092;2023-03-26T18:24:59;2.53;;;1.35;;
46457;SDS011;32155;54.076;12.092;2023-03-26T18:30:56;3.47;;;1.52;;
46457;SDS011;32155;54.076;12.092;2023-03-26T18:37:55;8.82;;;3.95;;
46457;SDS011;32155;54.076;12.092;2023-03-26T18:44:56;4.13;;;2.20;;
46457;SDS011;32155;54.076;12.092;2023-03-26T18:48:31;4.95;;;1.70;;
46457;SDS011;32155;54.076;12.092;2023-03-26T19:15:46;2.15;;;1.30;;
46457;SDS011;32155;54.076;12.092;2023-03-26T19:21:12;1.73;;;1.08;;
46457;SDS011;32155;54.076;12.092;2023-03-26T19:23:42;4.03;;;1.60;;
46457;SDS011;32155;54.076;12.092;2023-03-26T19:26:11;3.15;;;1.40;;
46457;SDS011;32155;54.076;12.092;2023-03-26T19:28:52;4.25;;;1.50;;
46457;SDS011;32155;54.076;12.092;2023-03-26T19:34:00;6.22;;;1.73;;
46457;SDS011;32155;54.076;12.092;2023-03-26T19:36:49;6.53;;;2.03;;
46457;SDS011;32155;54.076;12.092;2023-03-26T19:42:57;3.70;;;1.80;;
46457;SDS011;32155;54.076;12.092;2023-03-26T19:49:31;3.88;;;1.70;;
46457;SDS011;32155;54.076;12.092;2023-03-26T20:03:09;2.97;;;1.40;;
46457;SDS011;32155;54.076;12.092;2023-03-26T20:05:58;6.13;;;2.40;;
46457;SDS011;32155;54.076;12.092;2023-03-26T20:19:55;6.20;;;1.45;;
46457;SDS011;32155;54.076;12.092;2023-03-26T20:39:40;4.90;;;1.40;;
46457;SDS011;32155;54.076;12.092;2023-03-26T20:42:26;3.50;;;1.20;;
46457;SDS011;32155;54.076;12.092;2023-03-26T20:48:27;6.82;;;1.60;;
46457;SDS011;32155;54.076;12.092;2023-03-26T20:58:26;6.72;;;1.50;;
46457;SDS011;32155;54.076;12.092;2023-03-26T21:01:44;4.03;;;1.30;;
46457;SDS011;32155;54.076;12.092;2023-03-26T21:04:57;3.15;;;1.58;;
46457;SDS011;32155;54.076;12.092;2023-03-26T21:07:55;6.80;;;1.60;;
46457;SDS011;32155;54.076;12.092;2023-03-26T21:31:47;2.25;;;1.08;;
46457;SDS011;32155;54.076;12.092;2023-03-26T21:37:52;2.78;;;1.30;;
46457;SDS011;32155;54.076;12.092;2023-03-26T23:13:19;2.15;;;1.00;;
